Terminal Aerodrome Forecast
Issued by NWS

Home | Current Version | Previous Version | Graphics & Text | Print | Product List | Glossary On
Versions: 1 2 3 4 5 6 7 8 9 10 11 12 13 14 15 16 17 18 19 20 21 22 23 24 25 26 27 28 29 30 31 32 33
000
FTUS43 KLOT 240500
TAFORD
TAF
KORD 240526Z 2406/2512 21004KT P6SM OVC025
     FM240900 VRB03KT P6SM OVC018
     FM241100 VRB03KT 4SM BR OVC012
     FM241400 25004KT P6SM SCT010 OVC020
     FM241800 23007KT P6SM SCT025 BKN250
     FM250000 19004KT P6SM BKN080
     FM250600 21005KT 3SM BR BKN015=

USA.gov is the U.S. government's official web portal to all federal, state and local government web resources and services.